Time;durP1;ratioP1;P1;durP2;ratioP2;P2;SDS_P1;SDS_P2;PMS_P1;PMS_P2;Temp;Humidity;BMP_temperature;BMP_pressure;BME280_temperature;BME280_humidity;BME280_pressure;Samples;Min_cycle;Max_cycle;Signal;HPM_P1;HPM_P2
2023/08/24 00:04:05;;;;;;;10.30;10.00;;;19.40;99.90;;;;;;6202267;23;20218;-83
2023/08/24 00:06:38;;;;;;;10.40;10.10;;;19.40;99.90;;;;;;6203492;23;20211;-83
2023/08/24 00:09:05;;;;;;;10.00;9.70;;;19.30;99.90;;;;;;6204083;23;20207;-83
2023/08/24 00:11:34;;;;;;;9.95;9.65;;;19.40;99.90;;;;;;6203964;23;20246;-83
2023/08/24 00:14:03;;;;;;;10.35;10.05;;;19.30;99.90;;;;;;6204420;23;20219;-83
2023/08/24 00:16:42;;;;;;;10.23;9.93;;;19.30;99.90;;;;;;6204762;23;20219;-83
2023/08/24 00:19:12;;;;;;;10.57;10.27;;;19.30;99.90;;;;;;6205195;23;20250;-83
2023/08/24 00:21:42;;;;;;;10.32;10.02;;;19.30;99.90;;;;;;6204138;23;20198;-83
2023/08/24 00:24:09;;;;;;;10.43;10.13;;;19.20;99.90;;;;;;6204159;23;20199;-83
2023/08/24 00:26:48;;;;;;;10.60;10.30;;;19.20;99.90;;;;;;6204596;23;20192;-82
2023/08/24 00:29:17;;;;;;;10.52;10.23;;;19.20;99.90;;;;;;6204893;23;20277;-82
2023/08/24 00:31:55;;;;;;;10.30;10.00;;;19.20;99.90;;;;;;6205302;23;20223;-83
2023/08/24 00:34:34;;;;;;;10.50;10.20;;;19.20;99.90;;;;;;6206312;23;20195;-83
2023/08/24 00:37:05;;;;;;;10.20;9.90;;;19.10;99.90;;;;;;6204039;23;20206;-83
2023/08/24 00:39:32;;;;;;;10.25;9.95;;;19.10;99.90;;;;;;6204483;23;20199;-83
2023/08/24 00:42:02;;;;;;;10.40;10.10;;;19.00;99.90;;;;;;6208861;23;20202;-82
2023/08/24 00:44:41;;;;;;;10.25;9.95;;;19.00;99.90;;;;;;6212323;23;20217;-83
2023/08/24 00:47:10;;;;;;;10.50;10.20;;;19.00;99.90;;;;;;6207713;23;20195;-83
2023/08/24 00:49:39;;;;;;;10.20;9.90;;;19.00;99.90;;;;;;6207526;23;20183;-83
2023/08/24 00:55:05;;;;;;;10.50;10.20;;;18.90;99.90;;;;;;6207397;23;20203;-83
2023/08/24 00:57:33;;;;;;;10.55;10.25;;;18.80;99.90;;;;;;6206401;23;20188;-83
2023/08/24 01:00:05;;;;;;;10.10;9.80;;;18.70;99.90;;;;;;6207081;23;20226;-83
2023/08/24 01:02:32;;;;;;;10.40;10.10;;;18.70;99.90;;;;;;6206365;23;20199;-82
2023/08/24 01:05:12;;;;;;;10.20;9.90;;;18.60;99.90;;;;;;6206502;23;20210;-82
2023/08/24 01:07:45;;;;;;;10.45;10.15;;;18.60;99.90;;;;;;6206129;23;20260;-82
2023/08/24 01:10:13;;;;;;;10.40;10.10;;;18.50;99.90;;;;;;6206349;23;20197;-83
2023/08/24 01:13:00;;;;;;;10.57;10.27;;;18.50;99.90;;;;;;6206239;23;20277;-82
2023/08/24 01:15:46;;;;;;;10.50;10.20;;;18.40;99.90;;;;;;6205989;23;20254;-83
2023/08/24 01:18:18;;;;;;;10.15;9.85;;;18.40;99.90;;;;;;6205005;23;20254;-82
2023/08/24 01:20:47;;;;;;;10.13;9.82;;;18.30;99.90;;;;;;6204813;23;20202;-83
2023/08/24 01:23:31;;;;;;;10.40;10.10;;;18.30;99.90;;;;;;6204316;23;20235;-83
2023/08/24 01:26:11;;;;;;;10.45;10.15;;;18.30;99.90;;;;;;6204462;23;20223;-82
2023/08/24 01:28:39;;;;;;;10.50;10.20;;;18.20;99.90;;;;;;6205239;23;20223;-83
2023/08/24 01:31:08;;;;;;;10.52;10.23;;;18.20;99.90;;;;;;6206197;23;20183;-83
2023/08/24 01:36:17;;;;;;;10.80;10.50;;;18.20;99.90;;;;;;6204414;23;20219;-82
2023/08/24 01:39:06;;;;;;;10.90;10.60;;;18.10;99.90;;;;;;6206776;23;20207;-82
2023/08/24 01:41:50;;;;;;;10.50;10.20;;;18.20;99.90;;;;;;6220168;23;20188;-80
2023/08/24 01:44:22;;;;;;;10.48;10.18;;;18.10;99.90;;;;;;6220646;23;20196;-80
2023/08/24 01:49:36;;;;;;;10.38;10.07;;;18.10;99.90;;;;;;6220456;23;20255;-82
2023/08/24 01:52:06;;;;;;;10.20;9.90;;;18.10;99.90;;;;;;6220607;23;20212;-80
2023/08/24 01:54:35;;;;;;;10.40;10.10;;;18.00;99.90;;;;;;6220799;23;20195;-82
2023/08/24 02:00:00;;;;;;;10.30;10.00;;;18.00;99.90;;;;;;6218923;23;20194;-80
2023/08/24 02:02:39;;;;;;;10.23;9.93;;;18.00;99.90;;;;;;6219698;23;20192;-80
2023/08/24 02:05:08;;;;;;;10.32;10.02;;;18.00;99.90;;;;;;6220271;23;20195;-81
2023/08/24 02:07:46;;;;;;;10.38;10.07;;;18.00;99.90;;;;;;6220236;23;20171;-80
2023/08/24 02:10:25;;;;;;;10.23;9.93;;;18.00;99.90;;;;;;6220304;23;20175;-81
2023/08/24 02:12:56;;;;;;;9.98;9.68;;;18.00;99.90;;;;;;6219779;23;20183;-81
2023/08/24 02:15:23;;;;;;;10.20;9.90;;;18.00;99.90;;;;;;6220234;23;20175;-81
2023/08/24 02:18:02;;;;;;;10.00;9.70;;;18.00;99.90;;;;;;6220110;23;20219;-80
2023/08/24 02:20:31;;;;;;;10.00;9.70;;;18.00;99.90;;;;;;6218617;23;20184;-82
2023/08/24 02:23:10;;;;;;;9.90;9.60;;;17.90;99.90;;;;;;6205987;23;20188;-83
2023/08/24 02:28:27;;;;;;;10.05;9.75;;;17.90;99.90;;;;;;6205866;23;20239;-82
2023/08/24 02:30:55;;;;;;;10.00;9.70;;;17.90;99.90;;;;;;6202156;23;20198;-83
2023/08/24 02:33:34;;;;;;;9.80;9.50;;;17.90;99.90;;;;;;6202055;23;20207;-81
2023/08/24 02:36:03;;;;;;;9.70;9.40;;;17.90;99.90;;;;;;6205599;23;20192;-82
2023/08/24 02:38:32;;;;;;;9.63;9.32;;;17.90;99.90;;;;;;6217106;23;20192;-81
2023/08/24 02:41:04;;;;;;;9.73;9.43;;;17.90;99.90;;;;;;6218306;23;20210;-81
2023/08/24 02:43:34;;;;;;;9.65;9.35;;;17.90;99.90;;;;;;6216218;23;20184;-82
2023/08/24 02:46:03;;;;;;;9.70;9.40;;;17.80;99.90;;;;;;6204741;23;20244;-82
2023/08/24 02:48:31;;;;;;;9.50;9.20;;;17.80;99.90;;;;;;6206540;23;20227;-82
2023/08/24 02:50:59;;;;;;;9.57;9.27;;;17.90;99.90;;;;;;6204787;23;20255;-82
2023/08/24 02:56:07;;;;;;;9.40;9.10;;;17.80;99.90;;;;;;6203019;23;20199;-82
2023/08/24 03:01:50;;;;;;;9.40;9.10;;;17.80;99.90;;;;;;6208895;23;20195;-83
2023/08/24 03:04:19;;;;;;;9.45;9.15;;;17.80;99.90;;;;;;6209838;23;20187;-82
2023/08/24 03:09:28;;;;;;;9.65;9.35;;;17.70;99.90;;;;;;6206247;23;20210;-82
2023/08/24 03:12:07;;;;;;;9.63;9.32;;;17.70;99.90;;;;;;6205861;23;20212;-82
2023/08/24 03:17:33;;;;;;;9.57;9.27;;;17.70;99.90;;;;;;6204202;23;20210;-82
2023/08/24 03:20:02;;;;;;;9.43;9.13;;;17.70;99.90;;;;;;6204687;23;20192;-83
2023/08/24 03:22:31;;;;;;;9.88;9.57;;;17.70;99.90;;;;;;6204407;23;20208;-82
2023/08/24 03:25:09;;;;;;;9.55;9.25;;;17.60;99.90;;;;;;6206602;23;20203;-83
2023/08/24 03:30:19;;;;;;;9.55;9.25;;;17.50;99.90;;;;;;6204632;23;20203;-83
2023/08/24 03:32:46;;;;;;;9.57;9.27;;;17.50;99.90;;;;;;6204387;23;20258;-82
2023/08/24 03:35:25;;;;;;;9.50;9.20;;;17.40;99.90;;;;;;6205712;23;20188;-82
2023/08/24 03:37:54;;;;;;;9.52;9.23;;;17.40;99.90;;;;;;6204109;23;20187;-83
2023/08/24 03:40:33;;;;;;;9.57;9.27;;;17.40;99.90;;;;;;6203910;23;20251;-82
2023/08/24 03:43:02;;;;;;;9.50;9.20;;;17.30;99.90;;;;;;6203403;23;20222;-82
2023/08/24 03:45:34;;;;;;;9.60;9.30;;;17.30;99.90;;;;;;6205528;23;20266;-83
2023/08/24 03:48:01;;;;;;;9.65;9.35;;;17.30;99.90;;;;;;6205498;23;20188;-82
2023/08/24 03:50:30;;;;;;;9.70;9.40;;;17.20;99.90;;;;;;6205117;23;20195;-82
2023/08/24 03:53:10;;;;;;;9.82;9.52;;;17.20;99.90;;;;;;6203867;23;20255;-83
2023/08/24 03:55:38;;;;;;;9.90;9.60;;;17.20;99.90;;;;;;6177073;23;20206;-83
2023/08/24 03:58:17;;;;;;;10.00;9.70;;;17.20;99.90;;;;;;6203785;23;20188;-83
2023/08/24 04:03:42;;;;;;;10.43;10.13;;;17.20;99.90;;;;;;6205330;23;20218;-83
2023/08/24 04:06:10;;;;;;;10.35;10.05;;;17.20;99.90;;;;;;6205578;23;20187;-83
2023/08/24 04:11:19;;;;;;;10.07;9.77;;;17.20;99.90;;;;;;6209607;23;20254;-83
2023/08/24 04:13:47;;;;;;;10.35;10.05;;;17.10;99.90;;;;;;6201487;23;20246;-83
2023/08/24 04:16:20;;;;;;;10.43;10.13;;;17.10;99.90;;;;;;6202712;23;20267;-83
2023/08/24 04:18:47;;;;;;;10.50;10.20;;;17.10;99.90;;;;;;6204586;23;20211;-83
2023/08/24 04:21:26;;;;;;;10.50;10.20;;;17.10;99.90;;;;;;6204202;23;20202;-84
2023/08/24 04:23:54;;;;;;;10.50;10.20;;;17.10;99.90;;;;;;6205729;23;20196;-83
2023/08/24 04:26:33;;;;;;;10.55;10.25;;;17.10;99.90;;;;;;6205010;23;20196;-82
2023/08/24 04:29:12;;;;;;;10.30;10.00;;;17.10;99.90;;;;;;6205533;23;20235;-82
2023/08/24 04:31:42;;;;;;;10.40;10.10;;;17.10;99.90;;;;;;6204891;23;20195;-83
2023/08/24 04:34:11;;;;;;;10.43;10.13;;;17.10;99.90;;;;;;6203303;23;20199;-82
2023/08/24 04:36:40;;;;;;;10.10;9.80;;;17.10;99.90;;;;;;6203506;23;20198;-83
2023/08/24 04:39:08;;;;;;;10.40;10.10;;;17.20;99.90;;;;;;6202328;23;20195;-83
2023/08/24 04:41:47;;;;;;;10.40;10.10;;;17.20;99.90;;;;;;6203235;23;20210;-83
2023/08/24 04:44:16;;;;;;;9.98;9.68;;;17.20;99.90;;;;;;6203440;23;20251;-83
2023/08/24 04:46:49;;;;;;;10.18;9.88;;;17.30;99.90;;;;;;6203804;23;20196;-83
2023/08/24 04:49:16;;;;;;;10.13;9.82;;;17.20;99.90;;;;;;6202512;23;20200;-83
2023/08/24 04:51:44;;;;;;;10.38;10.07;;;17.30;99.90;;;;;;6202202;23;20286;-83
2023/08/24 04:54:11;;;;;;;10.15;9.85;;;17.30;99.90;;;;;;6193868;23;20270;-77
2023/08/24 04:56:38;;;;;;;10.50;10.20;;;17.30;99.90;;;;;;6192316;23;20239;-78
2023/08/24 04:59:05;;;;;;;10.20;9.90;;;17.30;99.90;;;;;;6192558;23;20259;-78
2023/08/24 05:01:32;;;;;;;10.20;9.90;;;17.30;99.90;;;;;;6192513;23;20230;-78
2023/08/24 05:04:01;;;;;;;10.02;9.73;;;17.40;99.90;;;;;;6197841;23;20218;-78
2023/08/24 05:06:28;;;;;;;10.00;9.70;;;17.30;99.90;;;;;;6203059;23;20207;-78
2023/08/24 05:08:56;;;;;;;10.30;10.00;;;17.40;99.90;;;;;;6199483;23;20215;-78
2023/08/24 05:11:26;;;;;;;10.07;9.77;;;17.40;99.90;;;;;;6196738;23;20255;-78
2023/08/24 05:13:53;;;;;;;10.13;9.82;;;17.40;99.90;;;;;;6195363;23;20328;-78
2023/08/24 05:16:21;;;;;;;10.10;9.80;;;17.50;99.90;;;;;;6195015;23;20210;-78
2023/08/24 05:18:48;;;;;;;9.95;9.65;;;17.50;99.90;;;;;;6195793;23;20292;-79
2023/08/24 05:21:17;;;;;;;10.18;9.88;;;17.50;99.90;;;;;;6194194;23;20219;-78
2023/08/24 05:23:44;;;;;;;10.10;9.80;;;17.50;99.90;;;;;;6194154;23;20231;-79
2023/08/24 05:26:11;;;;;;;10.30;10.00;;;17.60;99.90;;;;;;6194764;23;20310;-78
2023/08/24 05:28:40;;;;;;;10.27;9.98;;;17.70;99.90;;;;;;6194825;23;20273;-79
2023/08/24 05:31:13;;;;;;;10.10;9.80;;;17.70;99.90;;;;;;6195006;23;20231;-79
2023/08/24 05:33:40;;;;;;;10.25;9.95;;;17.90;99.90;;;;;;6193966;23;20263;-79
2023/08/24 05:36:08;;;;;;;10.43;10.13;;;18.00;99.90;;;;;;6194430;23;20248;-79
2023/08/24 05:38:37;;;;;;;10.20;9.90;;;18.20;99.90;;;;;;6195088;23;20267;-79
2023/08/24 05:41:05;;;;;;;10.30;10.00;;;18.30;99.90;;;;;;6194062;23;20246;-79
2023/08/24 05:43:32;;;;;;;10.32;10.02;;;18.40;99.90;;;;;;6197344;23;20203;-82
2023/08/24 05:45:59;;;;;;;10.30;10.00;;;18.60;99.90;;;;;;6200323;23;20219;-81
2023/08/24 05:48:29;;;;;;;10.07;9.77;;;18.70;99.90;;;;;;6202519;23;20203;-83
2023/08/24 05:51:12;;;;;;;10.45;10.15;;;18.90;99.90;;;;;;6202170;23;20222;-82
2023/08/24 05:56:23;;;;;;;10.52;10.23;;;19.00;99.90;;;;;;6201826;23;20203;-83
2023/08/24 06:01:34;;;;;;;10.68;10.38;;;19.00;99.90;;;;;;6198610;23;20199;-81
2023/08/24 06:04:01;;;;;;;10.55;10.25;;;19.00;99.90;;;;;;6202413;23;20200;-81
2023/08/24 06:06:28;;;;;;;10.65;10.35;;;19.10;99.90;;;;;;6201428;23;20188;-82
2023/08/24 06:09:02;;;;;;;10.65;10.35;;;19.10;99.90;;;;;;6202509;23;20192;-82
2023/08/24 06:11:30;;;;;;;10.60;10.30;;;19.10;99.90;;;;;;6202510;23;20199;-82
2023/08/24 06:13:58;;;;;;;10.60;10.30;;;19.10;99.90;;;;;;6201335;23;20231;-81
2023/08/24 06:16:26;;;;;;;10.40;10.10;;;19.00;99.90;;;;;;6200647;23;20200;-81
2023/08/24 06:18:54;;;;;;;10.32;10.02;;;19.00;99.90;;;;;;6202632;23;20202;-80
2023/08/24 06:21:22;;;;;;;10.35;10.05;;;18.90;99.90;;;;;;6199211;23;20242;-81
2023/08/24 06:23:49;;;;;;;10.40;10.10;;;19.00;99.90;;;;;;6198597;23;20238;-80
2023/08/24 06:26:19;;;;;;;10.57;10.27;;;18.90;99.90;;;;;;6198722;23;20219;-80
2023/08/24 06:28:47;;;;;;;10.57;10.27;;;18.90;99.90;;;;;;6201483;23;20191;-80
2023/08/24 06:31:16;;;;;;;10.23;9.93;;;18.90;99.90;;;;;;6201481;23;20206;-81
2023/08/24 06:33:43;;;;;;;10.10;9.80;;;18.90;99.90;;;;;;6197596;23;20279;-80
2023/08/24 06:36:12;;;;;;;10.32;10.02;;;19.00;99.90;;;;;;6197648;23;20192;-79
2023/08/24 06:38:39;;;;;;;10.20;9.90;;;19.20;99.90;;;;;;6198674;23;20222;-80
2023/08/24 06:41:10;;;;;;;10.13;9.82;;;19.30;99.90;;;;;;6198583;23;20203;-81
2023/08/24 06:43:40;;;;;;;10.05;9.75;;;19.50;99.90;;;;;;6198524;23;20212;-81
2023/08/24 06:46:08;;;;;;;10.13;9.82;;;19.80;99.90;;;;;;6198432;23;20238;-81
2023/08/24 06:48:35;;;;;;;10.30;10.00;;;19.90;99.90;;;;;;6198068;23;20432;-80
2023/08/24 06:51:02;;;;;;;10.27;9.98;;;20.00;99.90;;;;;;6196676;23;20210;-82
2023/08/24 06:53:29;;;;;;;10.50;10.20;;;20.10;99.90;;;;;;6198613;23;20204;-81
2023/08/24 06:55:57;;;;;;;10.38;10.07;;;20.40;99.90;;;;;;6194616;23;20244;-80
2023/08/24 06:58:24;;;;;;;10.68;10.38;;;20.60;99.90;;;;;;6193188;23;20230;-79
2023/08/24 07:00:54;;;;;;;10.60;10.30;;;20.80;99.90;;;;;;6192874;23;20311;-80
2023/08/24 07:03:21;;;;;;;10.40;10.10;;;21.00;99.90;;;;;;6197672;23;20204;-79
2023/08/24 07:05:48;;;;;;;10.57;10.27;;;21.10;99.90;;;;;;6197079;23;20255;-79
2023/08/24 07:08:16;;;;;;;10.40;10.10;;;21.20;99.90;;;;;;6198674;23;20200;-79
2023/08/24 07:10:44;;;;;;;10.73;10.43;;;21.20;99.90;;;;;;6196821;23;20230;-80
2023/08/24 07:13:11;;;;;;;10.70;10.40;;;21.30;99.90;;;;;;6198127;23;20596;-79
2023/08/24 07:15:38;;;;;;;10.80;10.50;;;21.50;99.90;;;;;;6198549;23;20212;-79
2023/08/24 07:18:07;;;;;;;10.90;10.60;;;21.50;99.90;;;;;;6196594;23;20235;-78
2023/08/24 07:20:34;;;;;;;10.70;10.40;;;21.40;99.90;;;;;;6195810;23;20207;-79
2023/08/24 07:23:02;;;;;;;10.50;10.20;;;21.40;99.90;;;;;;6193452;23;20202;-79
2023/08/24 07:25:28;;;;;;;10.65;10.35;;;21.30;99.90;;;;;;6194264;23;20231;-78
2023/08/24 07:27:58;;;;;;;10.93;10.63;;;21.30;99.90;;;;;;6195240;23;20323;-79
2023/08/24 07:30:26;;;;;;;11.20;10.85;;;21.30;99.90;;;;;;6193377;23;20204;-79
2023/08/24 07:32:53;;;;;;;10.77;10.48;;;21.40;99.90;;;;;;6194253;23;20209;-79
2023/08/24 07:35:24;;;;;;;10.88;10.57;;;21.50;99.90;;;;;;6194122;23;20211;-78
2023/08/24 07:37:51;;;;;;;10.90;10.60;;;21.70;99.90;;;;;;6193661;23;20203;-79
2023/08/24 07:40:18;;;;;;;10.98;10.68;;;21.80;99.90;;;;;;6193690;23;20192;-79
2023/08/24 07:42:46;;;;;;;10.90;10.60;;;21.70;99.90;;;;;;6193590;23;20198;-79
2023/08/24 07:45:13;;;;;;;11.05;10.75;;;21.70;99.90;;;;;;6193904;23;20207;-77
2023/08/24 07:47:41;;;;;;;11.27;10.88;;;21.70;99.90;;;;;;6194494;23;20192;-79
2023/08/24 07:50:09;;;;;;;11.23;10.82;;;21.90;99.90;;;;;;6199925;23;20218;-78
2023/08/24 07:52:39;;;;;;;11.23;10.82;;;22.00;99.90;;;;;;6200403;23;20196;-78
2023/08/24 07:55:07;;;;;;;10.88;10.57;;;22.10;99.90;;;;;;6199299;23;20254;-78
2023/08/24 07:57:34;;;;;;;11.07;10.77;;;22.10;99.90;;;;;;6198492;23;20199;-78
2023/08/24 08:00:02;;;;;;;10.75;10.45;;;22.10;99.90;;;;;;6203668;23;20250;-81
2023/08/24 08:02:29;;;;;;;11.18;10.88;;;22.30;99.90;;;;;;6201454;23;20211;-80
2023/08/24 08:04:58;;;;;;;10.98;10.68;;;22.30;99.90;;;;;;6200838;23;20200;-80
2023/08/24 08:07:26;;;;;;;11.05;10.75;;;22.40;99.90;;;;;;6201469;23;20196;-82
2023/08/24 08:09:54;;;;;;;11.10;10.80;;;22.60;99.90;;;;;;6201617;23;20257;-80
2023/08/24 08:12:21;;;;;;;11.10;10.80;;;22.70;99.90;;;;;;6194823;23;20195;-81
2023/08/24 08:14:49;;;;;;;11.05;10.75;;;22.90;99.90;;;;;;6196552;23;20289;-79
2023/08/24 08:17:16;;;;;;;11.00;10.70;;;23.00;99.90;;;;;;6194023;23;20201;-78
2023/08/24 08:19:43;;;;;;;10.90;10.60;;;23.30;99.90;;;;;;6193475;23;20693;-78
2023/08/24 08:22:10;;;;;;;11.00;10.70;;;23.40;99.90;;;;;;6193408;23;20200;-78
2023/08/24 08:24:37;;;;;;;10.98;10.68;;;23.60;99.90;;;;;;6193434;23;20207;-79
2023/08/24 08:27:05;;;;;;;10.77;10.48;;;23.70;99.90;;;;;;6193641;23;20199;-78
2023/08/24 08:29:32;;;;;;;11.07;10.77;;;23.70;99.90;;;;;;6194427;23;20274;-77
2023/08/24 08:31:59;;;;;;;11.38;11.07;;;24.00;99.90;;;;;;6192836;23;20196;-77
2023/08/24 08:34:26;;;;;;;11.27;10.98;;;24.20;99.90;;;;;;6192350;23;20204;-78
2023/08/24 08:36:53;;;;;;;11.15;10.85;;;24.50;99.90;;;;;;6194315;23;20218;-77
2023/08/24 08:39:20;;;;;;;11.18;10.88;;;24.80;99.90;;;;;;6195227;23;20192;-78
2023/08/24 08:41:47;;;;;;;11.25;10.95;;;25.10;99.90;;;;;;6193785;23;20196;-78
2023/08/24 08:44:17;;;;;;;11.15;10.85;;;25.30;99.90;;;;;;6193953;23;20298;-78
2023/08/24 08:46:45;;;;;;;11.00;10.70;;;25.50;99.90;;;;;;6194663;23;20204;-78
2023/08/24 08:49:16;;;;;;;11.00;10.70;;;25.60;99.90;;;;;;6200659;23;20231;-78
2023/08/24 08:51:43;;;;;;;10.93;10.63;;;25.60;99.90;;;;;;6194679;23;20198;-78
2023/08/24 08:54:10;;;;;;;10.95;10.65;;;25.80;99.90;;;;;;6194270;23;20223;-77
2023/08/24 08:56:37;;;;;;;10.80;10.50;;;26.10;99.90;;;;;;6194134;23;20196;-78
2023/08/24 08:59:09;;;;;;;10.90;10.60;;;26.40;99.90;;;;;;6194481;23;20196;-78
2023/08/24 09:01:38;;;;;;;10.88;10.57;;;26.60;99.90;;;;;;6193312;23;20266;-78
2023/08/24 09:04:07;;;;;;;11.30;11.00;;;27.00;99.90;;;;;;6193570;23;20210;-77
2023/08/24 09:06:35;;;;;;;11.10;10.80;;;27.10;99.90;;;;;;6193888;23;20258;-78
2023/08/24 09:09:03;;;;;;;11.13;10.82;;;27.20;99.90;;;;;;6193667;23;20195;-77
2023/08/24 09:11:29;;;;;;;11.05;10.75;;;27.50;99.90;;;;;;6193565;23;20532;-78
2023/08/24 09:13:56;;;;;;;11.20;10.90;;;27.80;99.90;;;;;;6193526;23;20215;-78
2023/08/24 09:16:24;;;;;;;11.20;10.90;;;28.00;99.90;;;;;;6194041;23;20200;-78
2023/08/24 09:18:52;;;;;;;11.27;10.98;;;28.30;99.90;;;;;;6194834;23;20285;-77
2023/08/24 09:21:19;;;;;;;11.50;11.20;;;28.50;99.90;;;;;;6194754;23;20227;-78
2023/08/24 09:23:56;;;;;;;11.07;10.77;;;28.40;99.90;;;;;;6193836;23;20230;-78
2023/08/24 09:26:29;;;;;;;10.90;10.60;;;28.10;99.90;;;;;;6194043;23;20211;-78
2023/08/24 09:28:57;;;;;;;10.98;10.68;;;27.90;99.90;;;;;;6194164;23;20207;-78
2023/08/24 09:31:24;;;;;;;10.85;10.55;;;27.80;99.90;;;;;;6193963;23;20210;-78
2023/08/24 09:34:02;;;;;;;10.73;10.43;;;27.90;99.90;;;;;;6193706;23;20207;-79
2023/08/24 09:36:32;;;;;;;10.55;10.25;;;28.00;99.90;;;;;;6194792;23;20202;-78
2023/08/24 09:39:00;;;;;;;11.05;10.75;;;28.10;99.90;;;;;;6195094;23;20191;-78
2023/08/24 09:41:39;;;;;;;10.73;10.43;;;28.20;99.90;;;;;;6194197;23;20259;-78
2023/08/24 09:44:06;;;;;;;11.00;10.70;;;28.30;99.90;;;;;;6193566;23;20210;-77
2023/08/24 09:46:34;;;;;;;10.85;10.55;;;28.50;99.90;;;;;;6194397;23;20195;-78
2023/08/24 09:49:02;;;;;;;10.85;10.55;;;28.70;99.90;;;;;;6203533;23;20212;-77
2023/08/24 09:51:30;;;;;;;11.05;10.75;;;28.90;99.90;;;;;;6195336;23;20235;-77
2023/08/24 09:53:59;;;;;;;11.18;10.88;;;29.00;99.90;;;;;;6193548;23;20263;-78
2023/08/24 09:56:29;;;;;;;11.10;10.80;;;28.90;99.90;;;;;;6195372;23;20196;-77
2023/08/24 09:58:59;;;;;;;11.10;10.80;;;29.00;99.90;;;;;;6195376;23;20252;-77
2023/08/24 10:01:26;;;;;;;11.07;10.77;;;29.10;99.90;;;;;;6194652;23;20184;-79
2023/08/24 10:03:55;;;;;;;11.18;10.88;;;29.20;99.90;;;;;;6198737;23;20303;-78
2023/08/24 10:06:39;;;;;;;11.07;10.77;;;29.30;99.90;;;;;;6210128;23;20191;-83
2023/08/24 10:09:11;;;;;;;11.30;11.00;;;29.60;99.90;;;;;;6219078;22;20184;-83
2023/08/24 10:11:49;;;;;;;11.15;10.85;;;29.70;99.90;;;;;;6214661;23;20191;-84
2023/08/24 10:14:24;;;;;;;11.20;10.90;;;29.90;99.90;;;;;;6213634;23;20206;-83
2023/08/24 10:16:53;;;;;;;11.23;10.93;;;30.10;99.90;;;;;;6216720;23;20171;-82
2023/08/24 10:19:22;;;;;;;11.40;11.10;;;30.20;99.90;;;;;;6217464;22;20191;-81
2023/08/24 10:21:52;;;;;;;11.32;11.02;;;30.20;99.90;;;;;;6217379;23;20196;-83
2023/08/24 10:24:21;;;;;;;11.25;10.95;;;30.40;99.90;;;;;;6216077;23;20187;-83
2023/08/24 10:26:49;;;;;;;11.10;10.80;;;30.50;99.90;;;;;;6218131;23;20215;-82
2023/08/24 10:29:22;;;;;;;11.00;10.70;;;30.70;99.90;;;;;;6218384;23;20187;-82
2023/08/24 10:31:51;;;;;;;10.80;10.50;;;31.10;99.90;;;;;;6217418;22;20219;-83
2023/08/24 10:34:19;;;;;;;10.95;10.65;;;31.60;99.90;;;;;;6215270;23;20207;-80
2023/08/24 10:36:51;;;;;;;10.73;10.43;;;32.00;99.90;;;;;;6205037;23;20204;-80
2023/08/24 10:39:20;;;;;;;10.80;10.50;;;32.30;99.90;;;;;;6201784;23;20254;-82
2023/08/24 10:41:51;;;;;;;10.95;10.65;;;32.60;99.90;;;;;;6200887;23;20191;-80
2023/08/24 10:44:25;;;;;;;11.10;10.80;;;32.70;99.90;;;;;;6201142;23;20667;-80
2023/08/24 10:47:08;;;;;;;10.98;10.68;;;32.80;99.90;;;;;;6211921;23;20195;-80
2023/08/24 10:49:35;;;;;;;10.90;10.60;;;32.70;99.90;;;;;;6205739;23;20202;-81
2023/08/24 10:52:22;;;;;;;10.90;10.60;;;32.50;99.90;;;;;;6202271;23;20265;-81
2023/08/24 10:54:52;;;;;;;10.77;10.48;;;32.60;99.90;;;;;;6193630;23;20258;-87
2023/08/24 10:57:21;;;;;;;10.90;10.60;;;32.90;99.90;;;;;;6197493;23;20192;-87
2023/08/24 11:00:21;;;;;;;10.98;10.68;;;33.10;99.90;;;;;;6197516;23;20211;-86
2023/08/24 11:05:35;;;;;;;10.98;10.68;;;33.50;99.90;;;;;;6187671;23;20282;-86
2023/08/24 11:10:49;;;;;;;11.30;11.00;;;33.80;99.90;;;;;;6195330;23;20235;-86
2023/08/24 11:13:19;;;;;;;11.43;11.13;;;33.80;99.90;;;;;;6196237;23;20202;-84
2023/08/24 11:15:54;;;;;;;10.95;10.65;;;33.70;99.90;;;;;;6197119;23;20266;-86
2023/08/24 11:18:28;;;;;;;11.10;10.80;;;33.70;99.90;;;;;;6207513;22;20195;-85
2023/08/24 11:20:58;;;;;;;11.02;10.73;;;33.90;99.90;;;;;;6198967;23;20195;-85
2023/08/24 11:23:30;;;;;;;10.60;10.30;;;34.20;99.90;;;;;;6197957;23;20196;-87
2023/08/24 11:25:59;;;;;;;10.82;10.52;;;34.40;99.90;;;;;;6198404;23;20188;-86
2023/08/24 11:28:29;;;;;;;11.10;10.80;;;33.90;99.90;;;;;;6198254;23;20265;-86
2023/08/24 11:33:42;;;;;;;11.00;10.70;;;33.40;99.90;;;;;;6197141;23;20183;-88
2023/08/24 11:36:14;;;;;;;11.15;10.85;;;33.20;99.90;;;;;;6198003;23;20259;-89
2023/08/24 11:38:44;;;;;;;11.20;10.90;;;32.90;99.90;;;;;;6200931;23;20264;-88
2023/08/24 11:44:08;;;;;;;11.10;10.80;;;33.00;99.90;;;;;;6201987;23;20191;-87
2023/08/24 11:46:38;;;;;;;11.27;10.98;;;33.30;99.90;;;;;;6204015;23;20203;-85
2023/08/24 11:49:07;;;;;;;11.27;10.98;;;33.80;99.90;;;;;;6200671;23;20199;-86
2023/08/24 11:51:36;;;;;;;11.32;11.02;;;34.00;99.90;;;;;;6195768;23;20237;-86
2023/08/24 11:54:08;;;;;;;11.02;10.73;;;33.90;99.90;;;;;;6197242;23;20191;-87
2023/08/24 11:56:42;;;;;;;10.95;10.65;;;33.60;99.90;;;;;;6197947;23;20211;-87
2023/08/24 11:59:13;;;;;;;11.20;10.90;;;33.60;99.90;;;;;;6196448;23;20195;-84
2023/08/24 12:01:42;;;;;;;11.00;10.70;;;33.50;99.90;;;;;;6197743;23;20884;-86
2023/08/24 12:04:12;;;;;;;10.82;10.52;;;33.80;99.90;;;;;;6196514;23;20203;-86
2023/08/24 12:06:40;;;;;;;11.00;10.70;;;34.20;99.90;;;;;;6196853;23;20213;-86
2023/08/24 12:09:12;;;;;;;11.15;10.85;;;34.30;99.90;;;;;;6197259;23;20230;-87
2023/08/24 12:11:40;;;;;;;11.10;10.80;;;34.00;99.90;;;;;;6196707;23;20199;-86
2023/08/24 12:14:17;;;;;;;10.85;10.55;;;33.60;99.90;;;;;;6198152;23;20227;-87
2023/08/24 12:16:56;;;;;;;10.98;10.68;;;33.40;99.90;;;;;;6198062;23;20179;-86
2023/08/24 12:19:35;;;;;;;10.95;10.65;;;33.40;99.90;;;;;;6197828;23;20192;-86
2023/08/24 12:22:04;;;;;;;10.80;10.50;;;33.40;99.90;;;;;;6198008;23;20215;-87
2023/08/24 12:30:25;;;;;;;10.77;10.48;;;33.70;99.90;;;;;;6198618;23;20199;-86
2023/08/24 12:33:03;;;;;;;10.80;10.50;;;34.10;99.90;;;;;;6172847;23;20217;-85
2023/08/24 12:35:32;;;;;;;10.80;10.50;;;34.20;99.90;;;;;;6199933;23;20199;-87
2023/08/24 12:38:11;;;;;;;10.55;10.25;;;34.50;99.90;;;;;;6201859;23;20207;-86
2023/08/24 12:40:58;;;;;;;10.80;10.50;;;34.40;99.90;;;;;;6199831;23;20192;-87
2023/08/24 12:43:28;;;;;;;10.82;10.52;;;33.70;99.90;;;;;;6199599;23;20195;-86
2023/08/24 12:45:56;;;;;;;10.60;10.30;;;33.20;99.90;;;;;;6206783;23;20204;-86
2023/08/24 12:48:35;;;;;;;10.80;10.50;;;33.00;99.90;;;;;;6204277;23;20196;-86
2023/08/24 12:51:04;;;;;;;10.70;10.40;;;33.00;99.90;;;;;;6205736;22;20191;-85
2023/08/24 12:53:43;;;;;;;10.73;10.43;;;33.30;99.90;;;;;;6220432;22;20217;-86
2023/08/24 12:59:08;;;;;;;10.70;10.40;;;33.20;99.90;;;;;;6207985;22;20219;-86
2023/08/24 13:01:37;;;;;;;10.77;10.48;;;33.50;99.90;;;;;;6203901;22;20188;-86
2023/08/24 13:04:06;;;;;;;10.40;10.10;;;33.90;99.90;;;;;;6206825;22;20196;-86
2023/08/24 13:06:36;;;;;;;10.73;10.43;;;34.20;99.90;;;;;;6200424;23;20231;-87
2023/08/24 13:09:06;;;;;;;10.23;9.93;;;34.10;99.90;;;;;;6198743;23;20211;-88
2023/08/24 13:14:31;;;;;;;10.60;10.30;;;34.40;99.90;;;;;;6202208;23;20249;-87
2023/08/24 13:17:00;;;;;;;10.45;10.15;;;34.40;99.90;;;;;;6198868;23;20283;-87
2023/08/24 13:22:10;;;;;;;11.15;10.85;;;34.00;99.90;;;;;;6197960;23;20199;-87
2023/08/24 13:24:39;;;;;;;10.93;10.63;;;34.00;99.90;;;;;;6199818;23;20259;-87
2023/08/24 13:29:56;;;;;;;11.18;10.88;;;33.70;99.90;;;;;;6201274;23;20207;-86
2023/08/24 13:32:25;;;;;;;11.18;10.88;;;34.20;99.90;;;;;;6201054;23;20211;-87
2023/08/24 13:35:03;;;;;;;11.13;10.82;;;34.40;99.90;;;;;;6198375;23;20210;-87
2023/08/24 13:37:43;;;;;;;10.93;10.63;;;34.30;99.90;;;;;;6198330;23;20202;-88
2023/08/24 13:40:12;;;;;;;11.10;10.80;;;34.60;99.90;;;;;;6197711;23;20258;-86
2023/08/24 13:42:42;;;;;;;10.80;10.50;;;34.70;99.90;;;;;;6197525;23;20207;-86
2023/08/24 13:45:10;;;;;;;10.70;10.40;;;34.20;99.90;;;;;;6198352;23;20270;-86
2023/08/24 13:47:39;;;;;;;10.60;10.30;;;33.90;99.90;;;;;;6197682;23;20234;-87
2023/08/24 13:50:08;;;;;;;10.70;10.40;;;33.80;99.90;;;;;;6198182;23;20286;-86
2023/08/24 13:52:49;;;;;;;10.70;10.40;;;33.70;99.90;;;;;;6198468;23;20246;-85
2023/08/24 13:55:16;;;;;;;10.88;10.57;;;33.80;99.90;;;;;;6196865;23;20262;-87
2023/08/24 14:00:42;;;;;;;10.93;10.63;;;33.40;99.90;;;;;;6197726;23;20247;-87